createdAt,value
2019-05-19T00:01:35.364Z,13.57
2019-05-19T00:04:04.076Z,13.20
2019-05-19T00:06:32.775Z,11.60
2019-05-19T00:09:01.484Z,11.83
2019-05-19T00:11:30.353Z,10.60
2019-05-19T00:13:59.052Z,10.07
2019-05-19T00:16:27.763Z,12.37
2019-05-19T00:18:56.475Z,10.67
2019-05-19T00:21:25.267Z,10.33
2019-05-19T00:23:54.117Z,10.17
2019-05-19T00:26:22.813Z,9.67
2019-05-19T00:28:51.508Z,9.63
2019-05-19T00:31:20.211Z,8.70
2019-05-19T00:33:48.915Z,8.87
2019-05-19T00:36:19.628Z,8.57
2019-05-19T00:38:47.967Z,10.60
2019-05-19T00:41:16.672Z,9.47
2019-05-19T00:43:45.368Z,8.17
2019-05-19T00:46:14.090Z,9.27
2019-05-19T00:48:42.775Z,9.30
2019-05-19T00:51:11.695Z,9.13
2019-05-19T00:53:40.395Z,9.13
2019-05-19T00:56:09.212Z,9.40
2019-05-19T00:58:38.335Z,10.90
2019-05-19T01:01:07.037Z,9.67
2019-05-19T01:03:35.747Z,10.30
2019-05-19T01:06:04.447Z,10.73
2019-05-19T01:08:33.155Z,8.93
2019-05-19T01:11:01.871Z,10.03
2019-05-19T01:13:30.580Z,10.40
2019-05-19T01:15:59.296Z,10.27
2019-05-19T01:18:27.987Z,9.87
2019-05-19T01:20:56.891Z,9.57
2019-05-19T01:23:25.634Z,10.07
2019-05-19T01:25:54.348Z,11.20
2019-05-19T01:28:23.052Z,10.67
2019-05-19T01:30:51.759Z,10.50
2019-05-19T01:33:20.456Z,11.60
2019-05-19T01:35:49.228Z,11.23
2019-05-19T01:38:17.980Z,12.77
2019-05-19T01:40:46.681Z,14.13
2019-05-19T01:43:15.396Z,13.40
2019-05-19T01:45:44.091Z,12.17
2019-05-19T01:48:12.800Z,12.60
2019-05-19T01:50:41.539Z,11.80
2019-05-19T01:53:10.247Z,11.13
2019-05-19T01:55:38.952Z,12.17
2019-05-19T01:58:07.655Z,11.53
2019-05-19T02:00:36.363Z,10.67
2019-05-19T02:03:05.285Z,10.63
2019-05-19T02:05:33.974Z,10.57
2019-05-19T02:08:02.688Z,9.97
2019-05-19T02:10:31.511Z,9.03
2019-05-19T02:13:00.204Z,8.83
2019-05-19T02:15:28.903Z,9.27
2019-05-19T02:17:57.687Z,10.03
2019-05-19T02:20:33.333Z,9.37
2019-05-19T02:22:56.739Z,9.87
2019-05-19T02:25:25.478Z,9.60
2019-05-19T02:27:54.188Z,9.50
2019-05-19T02:30:22.884Z,9.13
2019-05-19T02:32:51.585Z,9.43
2019-05-19T02:35:20.290Z,8.93
2019-05-19T02:37:49.019Z,7.93
2019-05-19T02:40:18.229Z,8.97
2019-05-19T02:42:49.192Z,9.53
2019-05-19T02:45:18.199Z,9.57
2019-05-19T02:47:47.699Z,9.10
2019-05-19T02:50:16.607Z,9.80
2019-05-19T02:52:48.245Z,10.33
2019-05-19T02:55:18.733Z,10.23
2019-05-19T02:57:49.653Z,10.30
2019-05-19T03:00:20.577Z,11.93
2019-05-19T03:02:49.336Z,10.83
2019-05-19T03:05:18.036Z,11.30
2019-05-19T03:07:46.753Z,11.03
2019-05-19T03:10:15.448Z,11.07
2019-05-19T03:12:44.183Z,11.70
2019-05-19T03:15:13.092Z,10.77
2019-05-19T03:17:41.803Z,12.43
2019-05-19T03:20:10.495Z,12.10
2019-05-19T03:22:39.210Z,11.27
2019-05-19T03:25:08.112Z,12.80
2019-05-19T03:27:36.860Z,12.30
2019-05-19T03:30:27.277Z,14.90
2019-05-19T03:32:57.612Z,12.03
2019-05-19T03:35:26.458Z,11.23
2019-05-19T03:37:55.215Z,11.60
2019-05-19T03:40:23.924Z,10.50
2019-05-19T03:42:52.661Z,11.47
2019-05-19T03:45:21.483Z,12.60
2019-05-19T03:47:50.231Z,9.97
2019-05-19T03:50:19.028Z,8.60
2019-05-19T03:52:47.765Z,9.63
2019-05-19T03:55:16.432Z,9.63
2019-05-19T03:57:45.141Z,9.83
2019-05-19T04:00:14.341Z,8.83
2019-05-19T04:02:43.048Z,10.20
2019-05-19T04:05:12.545Z,8.97
2019-05-19T04:07:41.261Z,10.20
2019-05-19T04:10:11.076Z,12.23
2019-05-19T04:12:39.774Z,10.40
2019-05-19T04:15:08.607Z,11.07
2019-05-19T04:17:37.315Z,10.77
2019-05-19T04:20:07.692Z,9.33
2019-05-19T04:22:36.588Z,9.33
2019-05-19T04:25:06.830Z,9.60
2019-05-19T04:27:35.538Z,10.47
2019-05-19T04:30:05.135Z,9.53
2019-05-19T04:32:33.844Z,8.80
2019-05-19T04:35:02.637Z,8.83
2019-05-19T04:37:31.347Z,8.33
2019-05-19T04:40:00.023Z,8.97
2019-05-19T04:42:28.733Z,8.13
2019-05-19T04:44:57.428Z,8.60
2019-05-19T04:47:26.135Z,9.37
2019-05-19T04:49:54.840Z,10.77
2019-05-19T04:52:23.563Z,8.77
2019-05-19T04:54:52.271Z,9.20
2019-05-19T04:57:20.963Z,8.47
2019-05-19T04:59:49.671Z,7.93
2019-05-19T05:02:18.374Z,7.50
2019-05-19T05:04:47.069Z,8.10
2019-05-19T05:07:15.764Z,8.10
2019-05-19T05:09:44.472Z,9.13
2019-05-19T05:12:13.172Z,8.70
2019-05-19T05:14:41.875Z,8.57
2019-05-19T05:17:10.587Z,8.98
2019-05-19T05:19:39.283Z,9.13
2019-05-19T05:22:21.328Z,8.60
2019-05-19T05:24:38.335Z,8.50
2019-05-19T05:27:07.043Z,8.50
2019-05-19T05:29:35.744Z,9.43
2019-05-19T05:32:04.448Z,9.37
2019-05-19T05:34:33.147Z,8.88
2019-05-19T05:37:01.888Z,10.17
2019-05-19T05:39:30.584Z,10.40
2019-05-19T05:41:59.323Z,9.87
2019-05-19T05:44:28.034Z,10.07
2019-05-19T05:46:56.727Z,8.93
2019-05-19T05:49:25.531Z,9.87
2019-05-19T05:51:54.231Z,10.37
2019-05-19T05:54:23.015Z,9.40
2019-05-19T05:56:51.716Z,9.27
2019-05-19T05:59:20.435Z,9.17
2019-05-19T06:01:49.057Z,9.53
2019-05-19T06:04:17.763Z,9.37
2019-05-19T06:06:46.465Z,8.78
2019-05-19T06:09:15.168Z,8.23
2019-05-19T06:11:43.874Z,8.75
2019-05-19T06:14:12.592Z,8.70
2019-05-19T06:16:41.285Z,8.35
2019-05-19T06:19:09.996Z,10.07
2019-05-19T06:21:38.703Z,9.40
2019-05-19T06:24:07.479Z,10.00
2019-05-19T06:26:36.126Z,9.98
2019-05-19T06:29:04.892Z,9.08
2019-05-19T06:31:33.788Z,9.23
2019-05-19T06:34:02.551Z,9.50
2019-05-19T06:36:31.251Z,10.38
2019-05-19T06:38:59.985Z,9.98
2019-05-19T06:41:28.659Z,8.67
2019-05-19T06:43:57.365Z,8.93
2019-05-19T06:46:26.059Z,9.70
2019-05-19T06:48:54.770Z,9.33
2019-05-19T06:51:23.473Z,9.90
2019-05-19T06:53:52.180Z,9.37
2019-05-19T06:56:20.881Z,9.57
2019-05-19T06:58:49.635Z,9.80
2019-05-19T07:01:18.336Z,9.63
2019-05-19T07:03:47.035Z,9.63
2019-05-19T07:06:15.671Z,9.75
2019-05-19T07:08:44.366Z,8.98
2019-05-19T07:11:13.059Z,9.23
2019-05-19T07:13:41.780Z,9.00
2019-05-19T07:16:10.468Z,9.00
2019-05-19T07:18:58.501Z,8.43
2019-05-19T07:21:27.207Z,9.05
2019-05-19T07:23:55.906Z,8.80
2019-05-19T07:26:24.554Z,8.20
2019-05-19T07:28:53.240Z,8.03
2019-05-19T07:31:22.223Z,9.38
2019-05-19T07:33:50.923Z,8.40
2019-05-19T07:36:19.628Z,8.60
2019-05-19T07:38:48.336Z,7.33
2019-05-19T07:41:17.031Z,8.50
2019-05-19T07:43:45.740Z,8.13
2019-05-19T07:46:14.454Z,7.92
2019-05-19T07:48:43.282Z,8.05
2019-05-19T07:51:11.981Z,7.53
2019-05-19T07:53:43.047Z,7.70
2019-05-19T07:56:11.047Z,7.47
2019-05-19T07:58:39.682Z,8.48
2019-05-19T08:01:08.398Z,8.55
2019-05-19T08:03:37.091Z,8.20
2019-05-19T08:06:05.985Z,8.33
2019-05-19T08:08:34.755Z,8.40
2019-05-19T08:11:03.467Z,8.25
2019-05-19T08:13:32.170Z,8.23
2019-05-19T08:16:00.892Z,8.18
2019-05-19T08:18:29.587Z,8.40
2019-05-19T08:20:58.431Z,8.40
2019-05-19T08:23:27.228Z,8.95
2019-05-19T08:25:55.955Z,8.15
2019-05-19T08:28:24.654Z,8.03
2019-05-19T08:30:53.574Z,8.05
2019-05-19T08:33:22.304Z,8.03
2019-05-19T08:35:51.034Z,8.98
2019-05-19T08:38:19.791Z,8.48
2019-05-19T08:40:48.547Z,8.40
2019-05-19T08:43:17.211Z,8.08
2019-05-19T08:45:46.018Z,8.27
2019-05-19T08:48:14.719Z,8.25
2019-05-19T08:50:43.435Z,8.67
2019-05-19T08:53:12.135Z,10.20
2019-05-19T08:55:40.857Z,9.65
2019-05-19T08:58:09.602Z,9.50
2019-05-19T09:00:38.749Z,6.85
2019-05-19T09:03:07.571Z,8.93
2019-05-19T09:05:36.286Z,8.60
2019-05-19T09:08:04.989Z,8.33
2019-05-19T09:10:33.687Z,8.35
2019-05-19T09:13:02.422Z,9.03
2019-05-19T09:15:31.117Z,8.88
2019-05-19T09:17:59.870Z,9.27
2019-05-19T09:20:28.575Z,8.05
2019-05-19T09:22:57.412Z,8.63
2019-05-19T09:25:26.107Z,8.63
2019-05-19T09:27:54.815Z,8.20
2019-05-19T09:30:23.653Z,8.45
2019-05-19T09:32:52.402Z,8.68
2019-05-19T09:35:21.105Z,10.25
2019-05-19T09:37:49.817Z,8.63
2019-05-19T09:40:18.729Z,9.33
2019-05-19T09:42:47.432Z,9.88
2019-05-19T09:45:16.254Z,10.30
2019-05-19T09:47:45.043Z,8.70
2019-05-19T09:50:14.755Z,8.55
2019-05-19T09:52:43.451Z,10.55
2019-05-19T09:55:12.560Z,8.20
2019-05-19T09:57:41.271Z,8.90
2019-05-19T10:00:10.367Z,8.77
2019-05-19T10:02:39.079Z,8.20
2019-05-19T10:05:07.979Z,9.05
2019-05-19T10:07:36.695Z,8.48
2019-05-19T10:10:11.727Z,8.00
2019-05-19T10:12:40.490Z,9.03
2019-05-19T10:15:09.483Z,9.13
2019-05-19T10:17:38.199Z,8.48
2019-05-19T10:20:08.686Z,8.55
2019-05-19T10:22:37.523Z,9.03
2019-05-19T10:25:21.104Z,8.40
2019-05-19T10:27:38.379Z,8.10
2019-05-19T10:30:08.684Z,8.93
2019-05-19T10:32:37.413Z,8.10
2019-05-19T10:35:06.201Z,8.20
2019-05-19T10:37:34.899Z,9.03
2019-05-19T10:40:04.810Z,9.00
2019-05-19T10:42:33.715Z,7.97
2019-05-19T10:45:02.508Z,8.05
2019-05-19T10:47:31.223Z,8.40
2019-05-19T10:50:00.035Z,7.87
2019-05-19T10:52:28.737Z,8.23
2019-05-19T10:54:57.436Z,7.20
2019-05-19T10:57:26.139Z,8.00
2019-05-19T10:59:54.847Z,7.75
2019-05-19T11:02:23.775Z,8.13
2019-05-19T11:04:52.483Z,7.95
2019-05-19T11:07:21.191Z,8.48
2019-05-19T11:09:49.924Z,7.83
2019-05-19T11:12:18.629Z,8.10
2019-05-19T11:14:47.332Z,9.15
2019-05-19T11:17:16.043Z,8.08
2019-05-19T11:19:44.745Z,8.70
2019-05-19T11:22:13.451Z,8.25
2019-05-19T11:24:42.319Z,8.03
2019-05-19T11:27:11.095Z,7.58
2019-05-19T11:29:39.795Z,8.35
2019-05-19T11:32:08.494Z,9.00
2019-05-19T11:34:37.199Z,8.38
2019-05-19T11:37:07.455Z,8.90
2019-05-19T11:39:36.312Z,8.43
2019-05-19T11:42:05.012Z,8.10
2019-05-19T11:44:33.750Z,8.73
2019-05-19T11:47:02.424Z,8.93
2019-05-19T11:49:31.160Z,8.20
2019-05-19T11:51:59.863Z,9.40
2019-05-19T11:54:28.556Z,9.83
2019-05-19T11:56:57.265Z,9.68
2019-05-19T11:59:26.037Z,9.05
2019-05-19T12:01:54.667Z,9.50
2019-05-19T12:04:23.290Z,8.98
2019-05-19T12:06:51.995Z,8.85
2019-05-19T12:09:20.699Z,9.53
2019-05-19T12:11:49.432Z,9.10
2019-05-19T12:14:18.128Z,8.98
2019-05-19T12:16:46.945Z,8.80
2019-05-19T12:19:15.652Z,8.58
2019-05-19T12:21:44.350Z,8.43
2019-05-19T12:24:13.135Z,8.48
2019-05-19T12:26:41.831Z,7.50
2019-05-19T12:29:10.554Z,8.68
2019-05-19T12:31:39.248Z,8.53
2019-05-19T12:34:07.988Z,8.80
2019-05-19T12:36:36.692Z,8.40
2019-05-19T12:39:06.489Z,8.03
2019-05-19T12:41:35.314Z,8.58
2019-05-19T12:44:03.947Z,8.73
2019-05-19T12:46:32.643Z,9.03
2019-05-19T12:49:01.352Z,8.15
2019-05-19T12:51:30.069Z,9.20
2019-05-19T12:53:58.768Z,8.50
2019-05-19T12:56:39.185Z,8.43
2019-05-19T12:58:57.864Z,8.13
2019-05-19T13:01:26.584Z,8.85
2019-05-19T13:03:55.285Z,8.70
2019-05-19T13:06:23.975Z,8.20
2019-05-19T13:08:52.846Z,8.80
2019-05-19T13:11:21.563Z,9.15
2019-05-19T13:13:50.267Z,8.98
2019-05-19T13:16:18.966Z,8.13
2019-05-19T13:18:47.760Z,8.23
2019-05-19T13:21:16.383Z,8.93
2019-05-19T13:23:45.083Z,9.35
2019-05-19T13:26:13.791Z,9.63
2019-05-19T13:28:42.685Z,9.50
2019-05-19T13:31:11.356Z,9.75
2019-05-19T13:33:40.068Z,10.53
2019-05-19T13:36:08.776Z,10.78
2019-05-19T13:38:37.500Z,9.85
2019-05-19T13:41:06.216Z,8.98
2019-05-19T13:43:34.961Z,8.30
2019-05-19T13:46:03.625Z,8.13
2019-05-19T13:48:32.330Z,8.65
2019-05-19T13:51:01.028Z,7.35
2019-05-19T13:53:29.796Z,7.83
2019-05-19T13:55:58.497Z,7.67
2019-05-19T13:58:27.201Z,7.60
2019-05-19T14:00:55.895Z,7.78
2019-05-19T14:03:24.668Z,8.60
2019-05-19T14:05:53.367Z,8.63
2019-05-19T14:08:22.069Z,8.30
2019-05-19T14:10:50.837Z,8.50
2019-05-19T14:13:19.535Z,8.40
2019-05-19T14:15:48.246Z,8.80
2019-05-19T14:18:16.957Z,8.83
2019-05-19T14:20:45.663Z,8.68
2019-05-19T14:23:33.628Z,8.13
2019-05-19T14:26:02.340Z,8.83
2019-05-19T14:28:31.047Z,8.45
2019-05-19T14:30:59.959Z,8.95
2019-05-19T14:33:28.663Z,9.23
2019-05-19T14:35:57.371Z,9.45
2019-05-19T14:38:26.083Z,8.83
2019-05-19T14:40:54.851Z,8.48
2019-05-19T14:43:25.259Z,9.85
2019-05-19T14:45:54.072Z,8.93
2019-05-19T14:48:22.813Z,8.95
2019-05-19T14:50:51.623Z,9.23
2019-05-19T14:53:20.333Z,8.73
2019-05-19T14:55:49.027Z,8.50
2019-05-19T14:58:17.838Z,7.78
2019-05-19T15:00:47.644Z,8.83
2019-05-19T15:03:16.442Z,9.08
2019-05-19T15:05:45.154Z,8.28
2019-05-19T15:08:13.926Z,8.03
2019-05-19T15:10:42.691Z,8.48
2019-05-19T15:13:11.383Z,8.13
2019-05-19T15:15:40.080Z,8.05
2019-05-19T15:18:08.818Z,9.50
2019-05-19T15:20:37.521Z,8.85
2019-05-19T15:23:06.223Z,8.40
2019-05-19T15:25:34.923Z,8.23
2019-05-19T15:28:05.373Z,8.55
2019-05-19T15:30:33.987Z,8.43
2019-05-19T15:33:02.700Z,8.50
2019-05-19T15:35:31.335Z,8.93
2019-05-19T15:38:00.039Z,8.28
2019-05-19T15:40:28.744Z,8.78
2019-05-19T15:42:57.452Z,7.78
2019-05-19T15:45:26.147Z,8.20
2019-05-19T15:47:55.064Z,8.05
2019-05-19T15:50:23.824Z,9.00
2019-05-19T15:52:52.549Z,8.78
2019-05-19T15:55:21.310Z,8.48
2019-05-19T15:57:50.055Z,8.60
2019-05-19T16:00:20.324Z,8.43
2019-05-19T16:02:49.039Z,8.38
2019-05-19T16:05:17.755Z,8.48
2019-05-19T16:07:46.448Z,8.15
2019-05-19T16:10:16.055Z,7.83
2019-05-19T16:12:44.750Z,8.73
2019-05-19T16:15:14.055Z,8.45
2019-05-19T16:17:42.766Z,8.93
2019-05-19T16:20:11.768Z,7.50
2019-05-19T16:22:40.478Z,8.43
2019-05-19T16:25:09.981Z,8.03
2019-05-19T16:27:39.214Z,8.25
2019-05-19T16:30:08.728Z,7.62
2019-05-19T16:32:37.435Z,8.05
2019-05-19T16:35:07.128Z,7.15
2019-05-19T16:37:35.865Z,6.78
2019-05-19T16:40:04.917Z,7.62
2019-05-19T16:42:33.619Z,7.62
2019-05-19T16:45:02.322Z,7.25
2019-05-19T16:47:31.166Z,7.92
2019-05-19T16:49:59.790Z,8.10
2019-05-19T16:52:28.485Z,7.05
2019-05-19T16:55:17.384Z,7.30
2019-05-19T16:57:46.086Z,6.97
2019-05-19T17:00:14.854Z,6.42
2019-05-19T17:02:43.548Z,6.47
2019-05-19T17:05:12.558Z,6.45
2019-05-19T17:07:41.251Z,7.62
2019-05-19T17:10:09.968Z,7.00
2019-05-19T17:12:38.663Z,6.47
2019-05-19T17:15:08.207Z,6.85
2019-05-19T17:17:36.908Z,6.78
2019-05-19T17:20:06.900Z,6.92
2019-05-19T17:22:35.620Z,6.70
2019-05-19T17:25:06.716Z,7.30
2019-05-19T17:27:35.412Z,6.55
2019-05-19T17:30:06.613Z,6.65
2019-05-19T17:32:35.389Z,6.28
2019-05-19T17:35:15.720Z,6.67
2019-05-19T17:37:44.448Z,6.90
2019-05-19T17:40:13.551Z,7.00
2019-05-19T17:42:42.252Z,6.37
2019-05-19T17:45:11.660Z,6.58
2019-05-19T17:47:40.348Z,6.65
2019-05-19T17:50:10.056Z,6.03
2019-05-19T17:52:38.799Z,6.30
2019-05-19T17:55:08.804Z,6.55
2019-05-19T17:57:38.339Z,6.78
2019-05-19T18:00:10.280Z,6.80
2019-05-19T18:02:39.171Z,6.28
2019-05-19T18:05:07.939Z,6.85
2019-05-19T18:07:37.056Z,6.85
2019-05-19T18:10:07.355Z,6.72
2019-05-19T18:12:36.091Z,6.40
2019-05-19T18:15:05.988Z,6.22
2019-05-19T18:17:34.852Z,6.97
2019-05-19T18:20:04.939Z,6.17
2019-05-19T18:22:33.732Z,6.33
2019-05-19T18:25:02.540Z,6.37
2019-05-19T18:27:31.234Z,6.53
2019-05-19T18:29:59.942Z,6.80
2019-05-19T18:32:28.642Z,6.40
2019-05-19T18:34:57.524Z,6.65
2019-05-19T18:37:26.275Z,6.72
2019-05-19T18:39:54.927Z,6.35
2019-05-19T18:42:23.635Z,6.72
2019-05-19T18:44:52.334Z,6.80
2019-05-19T18:47:21.083Z,7.12
2019-05-19T18:49:49.779Z,6.10
2019-05-19T18:52:18.483Z,6.60
2019-05-19T18:54:47.190Z,6.55
2019-05-19T18:57:15.895Z,6.65
2019-05-19T18:59:47.414Z,6.42
2019-05-19T19:02:15.305Z,7.60
2019-05-19T19:04:44.000Z,6.70
2019-05-19T19:07:12.699Z,6.60
2019-05-19T19:09:41.426Z,6.50
2019-05-19T19:12:10.123Z,6.60
2019-05-19T19:14:38.835Z,6.40
2019-05-19T19:17:07.601Z,5.75
2019-05-19T19:19:36.785Z,5.92
2019-05-19T19:22:05.471Z,6.67
2019-05-19T19:24:34.176Z,5.60
2019-05-19T19:27:02.885Z,5.83
2019-05-19T19:29:31.580Z,6.30
2019-05-19T19:32:00.293Z,5.80
2019-05-19T19:34:28.907Z,5.70
2019-05-19T19:36:57.470Z,5.60
2019-05-19T19:39:26.176Z,6.05
2019-05-19T19:41:54.875Z,6.03
2019-05-19T19:44:23.577Z,5.40
2019-05-19T19:46:53.835Z,5.83
2019-05-19T19:49:22.700Z,6.35
2019-05-19T19:51:51.416Z,6.23
2019-05-19T19:54:20.113Z,6.00
2019-05-19T19:56:48.812Z,6.42
2019-05-19T19:59:17.522Z,5.83
2019-05-19T20:01:46.246Z,6.62
2019-05-19T20:04:14.976Z,6.83
2019-05-19T20:06:43.659Z,6.85
2019-05-19T20:09:12.355Z,6.83
2019-05-19T20:11:41.059Z,6.45
2019-05-19T20:14:09.735Z,7.17
2019-05-19T20:16:38.440Z,6.67
2019-05-19T20:19:07.136Z,7.10
2019-05-19T20:21:35.851Z,6.87
2019-05-19T20:24:04.569Z,6.67
2019-05-19T20:26:33.425Z,6.97
2019-05-19T20:29:02.124Z,7.67
2019-05-19T20:31:31.516Z,6.60
2019-05-19T20:34:00.303Z,6.90
2019-05-19T20:36:29.044Z,7.12
2019-05-19T20:38:57.797Z,7.33
2019-05-19T20:41:26.507Z,6.87
2019-05-19T20:43:55.217Z,6.75
2019-05-19T20:46:23.912Z,7.28
2019-05-19T20:48:52.615Z,6.60
2019-05-19T20:51:21.374Z,7.08
2019-05-19T20:53:53.166Z,7.07
2019-05-19T20:56:20.441Z,7.15
2019-05-19T20:58:49.140Z,7.17
2019-05-19T21:01:17.840Z,7.53
2019-05-19T21:03:46.535Z,7.55
2019-05-19T21:06:15.245Z,7.70
2019-05-19T21:08:43.939Z,7.83
2019-05-19T21:11:12.646Z,7.83
2019-05-19T21:13:41.342Z,7.75
2019-05-19T21:16:10.055Z,8.70
2019-05-19T21:18:38.684Z,8.15
2019-05-19T21:21:07.313Z,9.68
2019-05-19T21:23:36.016Z,8.40
2019-05-19T21:26:04.716Z,7.35
2019-05-19T21:28:33.463Z,6.23
2019-05-19T21:31:05.883Z,5.70
2019-05-19T21:33:32.549Z,5.55
2019-05-19T21:36:01.258Z,7.00
2019-05-19T21:38:29.947Z,8.23
2019-05-19T21:40:58.666Z,9.23
2019-05-19T21:43:27.660Z,8.00
2019-05-19T21:45:56.367Z,7.42
2019-05-19T21:48:32.926Z,8.13
2019-05-19T21:51:01.753Z,6.97
2019-05-19T21:53:30.431Z,7.67
2019-05-19T21:55:59.135Z,8.03
2019-05-19T21:58:27.843Z,8.23
2019-05-19T22:00:56.823Z,8.40
2019-05-19T22:03:25.523Z,8.90
2019-05-19T22:05:54.223Z,8.50
2019-05-19T22:08:22.959Z,8.73
2019-05-19T22:10:51.651Z,8.60
2019-05-19T22:13:20.355Z,8.90
2019-05-19T22:15:49.124Z,8.40
2019-05-19T22:18:17.855Z,8.45
2019-05-19T22:20:46.661Z,8.55
2019-05-19T22:23:15.388Z,8.93
2019-05-19T22:25:44.090Z,9.00
2019-05-19T22:28:12.794Z,9.27
2019-05-19T22:30:41.500Z,9.58
2019-05-19T22:33:10.195Z,10.48
2019-05-19T22:35:39.207Z,10.15
2019-05-19T22:38:09.502Z,9.68
2019-05-19T22:40:38.586Z,10.45
2019-05-19T22:43:07.281Z,9.77
2019-05-19T22:45:35.987Z,11.17
2019-05-19T22:48:04.703Z,10.85
2019-05-19T22:50:33.407Z,10.88
2019-05-19T22:53:02.111Z,11.13
2019-05-19T22:55:30.815Z,11.43
2019-05-19T22:57:59.525Z,11.55
2019-05-19T23:00:28.228Z,11.75
2019-05-19T23:02:56.933Z,12.15
2019-05-19T23:05:26.517Z,12.73
2019-05-19T23:07:55.232Z,12.15
2019-05-19T23:10:24.335Z,11.25
2019-05-19T23:12:53.039Z,12.10
2019-05-19T23:15:21.951Z,12.23
2019-05-19T23:17:50.651Z,11.93
2019-05-19T23:20:19.523Z,12.45
2019-05-19T23:22:48.224Z,12.23
2019-05-19T23:25:16.976Z,11.85
2019-05-19T23:27:45.679Z,12.23
2019-05-19T23:30:14.584Z,12.00
2019-05-19T23:32:43.259Z,11.90
2019-05-19T23:35:12.363Z,11.45
2019-05-19T23:37:41.151Z,10.80
2019-05-19T23:40:10.460Z,11.48
2019-05-19T23:42:39.252Z,11.48
2019-05-19T23:45:08.659Z,11.13
2019-05-19T23:47:37.365Z,10.98
2019-05-19T23:50:06.370Z,11.53
2019-05-19T23:52:35.240Z,11.63
2019-05-19T23:55:05.743Z,11.93
2019-05-19T23:57:34.443Z,11.67
